sensor_id;sensor_type;location;lat;lon;timestamp;temperature;humidity
30069;DHT22;16894;49.456;10.644;2023-02-28T00:00:06;-2.10;99.90
30069;DHT22;16894;49.456;10.644;2023-02-28T00:02:39;-2.10;99.90
30069;DHT22;16894;49.456;10.644;2023-02-28T00:05:05;-2.10;99.90
30069;DHT22;16894;49.456;10.644;2023-02-28T00:07:31;-2.10;99.90
30069;DHT22;16894;49.456;10.644;2023-02-28T00:09:57;-2.10;99.90
30069;DHT22;16894;49.456;10.644;2023-02-28T00:12:23;-2.10;99.90
30069;DHT22;16894;49.456;10.644;2023-02-28T00:14:49;-2.20;99.90
30069;DHT22;16894;49.456;10.644;2023-02-28T00:17:14;-2.20;99.90
30069;DHT22;16894;49.456;10.644;2023-02-28T00:19:40;-2.20;99.90
30069;DHT22;16894;49.456;10.644;2023-02-28T00:22:05;-2.30;99.90
30069;DHT22;16894;49.456;10.644;2023-02-28T00:24:31;-2.30;99.90
30069;DHT22;16894;49.456;10.644;2023-02-28T00:26:56;-2.30;99.90
30069;DHT22;16894;49.456;10.644;2023-02-28T00:29:22;-2.40;99.90
30069;DHT22;16894;49.456;10.644;2023-02-28T00:31:47;-2.40;99.90
30069;DHT22;16894;49.456;10.644;2023-02-28T00:34:13;-2.40;99.90
30069;DHT22;16894;49.456;10.644;2023-02-28T00:36:38;-2.40;99.90
30069;DHT22;16894;49.456;10.644;2023-02-28T00:39:04;-2.50;99.90
30069;DHT22;16894;49.456;10.644;2023-02-28T00:41:30;-2.50;99.90
30069;DHT22;16894;49.456;10.644;2023-02-28T00:43:55;-2.60;99.90
30069;DHT22;16894;49.456;10.644;2023-02-28T00:46:21;-2.50;99.90
30069;DHT22;16894;49.456;10.644;2023-02-28T00:48:46;-2.40;99.90
30069;DHT22;16894;49.456;10.644;2023-02-28T00:51:12;-2.40;99.90
30069;DHT22;16894;49.456;10.644;2023-02-28T00:53:37;-2.50;99.90
30069;DHT22;16894;49.456;10.644;2023-02-28T00:56:03;-2.50;99.90
30069;DHT22;16894;49.456;10.644;2023-02-28T00:58:28;-2.50;99.90
30069;DHT22;16894;49.456;10.644;2023-02-28T01:00:54;-2.50;99.90
30069;DHT22;16894;49.456;10.644;2023-02-28T01:03:20;-2.50;99.90
30069;DHT22;16894;49.456;10.644;2023-02-28T01:05:46;-2.40;99.90
30069;DHT22;16894;49.456;10.644;2023-02-28T01:08:12;-2.40;99.90
30069;DHT22;16894;49.456;10.644;2023-02-28T01:10:39;-2.50;99.90
30069;DHT22;16894;49.456;10.644;2023-02-28T01:13:04;-2.40;99.90
30069;DHT22;16894;49.456;10.644;2023-02-28T01:15:30;-2.40;99.90
30069;DHT22;16894;49.456;10.644;2023-02-28T01:17:58;-2.40;99.90
30069;DHT22;16894;49.456;10.644;2023-02-28T01:20:23;-2.40;99.90
30069;DHT22;16894;49.456;10.644;2023-02-28T01:22:49;-2.30;99.90
30069;DHT22;16894;49.456;10.644;2023-02-28T01:25:15;-2.30;99.90
30069;DHT22;16894;49.456;10.644;2023-02-28T01:27:40;-2.20;99.90
30069;DHT22;16894;49.456;10.644;2023-02-28T01:30:06;-2.20;99.90
30069;DHT22;16894;49.456;10.644;2023-02-28T01:32:32;-2.10;99.90
30069;DHT22;16894;49.456;10.644;2023-02-28T01:34:57;-2.10;99.90
30069;DHT22;16894;49.456;10.644;2023-02-28T01:37:23;-2.10;99.90
30069;DHT22;16894;49.456;10.644;2023-02-28T01:39:49;-2.10;99.90
30069;DHT22;16894;49.456;10.644;2023-02-28T01:42:14;-2.10;99.90
30069;DHT22;16894;49.456;10.644;2023-02-28T01:47:26;-2.10;99.90
30069;DHT22;16894;49.456;10.644;2023-02-28T01:49:52;-2.10;99.90
30069;DHT22;16894;49.456;10.644;2023-02-28T01:52:18;-2.10;99.90
30069;DHT22;16894;49.456;10.644;2023-02-28T01:54:45;-2.00;99.90
30069;DHT22;16894;49.456;10.644;2023-02-28T01:57:14;-2.10;99.90
30069;DHT22;16894;49.456;10.644;2023-02-28T01:59:43;-2.10;99.90
30069;DHT22;16894;49.456;10.644;2023-02-28T02:02:14;-2.00;99.90
30069;DHT22;16894;49.456;10.644;2023-02-28T02:04:41;-2.10;99.90
30069;DHT22;16894;49.456;10.644;2023-02-28T02:07:09;-2.00;99.90
30069;DHT22;16894;49.456;10.644;2023-02-28T02:09:36;-2.10;99.90
30069;DHT22;16894;49.456;10.644;2023-02-28T02:12:03;-2.00;99.90
30069;DHT22;16894;49.456;10.644;2023-02-28T02:17:42;-2.00;99.90
30069;DHT22;16894;49.456;10.644;2023-02-28T02:20:32;-2.00;99.90
30069;DHT22;16894;49.456;10.644;2023-02-28T02:23:15;-2.00;99.90
30069;DHT22;16894;49.456;10.644;2023-02-28T02:28:38;-2.00;99.90
30069;DHT22;16894;49.456;10.644;2023-02-28T02:36:42;-2.20;99.90
30069;DHT22;16894;49.456;10.644;2023-02-28T02:39:19;-2.20;99.90
30069;DHT22;16894;49.456;10.644;2023-02-28T02:41:52;-2.20;99.90
30069;DHT22;16894;49.456;10.644;2023-02-28T02:44:19;-2.20;99.90
30069;DHT22;16894;49.456;10.644;2023-02-28T02:46:47;-2.20;99.90
30069;DHT22;16894;49.456;10.644;2023-02-28T02:49:19;-2.20;99.90
30069;DHT22;16894;49.456;10.644;2023-02-28T02:51:46;-2.20;99.90
30069;DHT22;16894;49.456;10.644;2023-02-28T02:54:13;-2.20;99.90
30069;DHT22;16894;49.456;10.644;2023-02-28T02:56:41;-2.20;99.90
30069;DHT22;16894;49.456;10.644;2023-02-28T02:59:09;-2.20;99.90
30069;DHT22;16894;49.456;10.644;2023-02-28T03:01:36;-2.20;99.90
30069;DHT22;16894;49.456;10.644;2023-02-28T03:04:05;-2.20;99.90
30069;DHT22;16894;49.456;10.644;2023-02-28T03:06:31;-2.30;99.90
30069;DHT22;16894;49.456;10.644;2023-02-28T03:08:57;-2.30;99.90
30069;DHT22;16894;49.456;10.644;2023-02-28T03:11:22;-2.30;99.90
30069;DHT22;16894;49.456;10.644;2023-02-28T03:13:51;-2.30;99.90
30069;DHT22;16894;49.456;10.644;2023-02-28T03:19:12;-2.30;99.90
30069;DHT22;16894;49.456;10.644;2023-02-28T03:24:12;-2.40;99.90
30069;DHT22;16894;49.456;10.644;2023-02-28T03:26:42;-2.50;99.90
30069;DHT22;16894;49.456;10.644;2023-02-28T03:31:43;-2.40;99.90
30069;DHT22;16894;49.456;10.644;2023-02-28T03:36:44;-2.40;99.90
30069;DHT22;16894;49.456;10.644;2023-02-28T03:39:14;-2.40;99.90
30069;DHT22;16894;49.456;10.644;2023-02-28T03:44:23;-2.30;99.90
30069;DHT22;16894;49.456;10.644;2023-02-28T03:46:55;-2.40;99.90
30069;DHT22;16894;49.456;10.644;2023-02-28T03:49:23;-2.40;99.90
30069;DHT22;16894;49.456;10.644;2023-02-28T03:51:49;-2.40;99.90
30069;DHT22;16894;49.456;10.644;2023-02-28T03:54:18;-2.50;99.90
30069;DHT22;16894;49.456;10.644;2023-02-28T03:56:51;-2.50;99.90
30069;DHT22;16894;49.456;10.644;2023-02-28T03:59:26;-2.50;99.90
30069;DHT22;16894;49.456;10.644;2023-02-28T04:01:53;-2.50;99.90
30069;DHT22;16894;49.456;10.644;2023-02-28T04:04:22;-2.50;99.90
30069;DHT22;16894;49.456;10.644;2023-02-28T04:06:49;-2.50;99.90
30069;DHT22;16894;49.456;10.644;2023-02-28T04:09:15;-2.50;99.90
30069;DHT22;16894;49.456;10.644;2023-02-28T04:11:41;-2.60;99.90
30069;DHT22;16894;49.456;10.644;2023-02-28T04:14:08;-2.50;99.90
30069;DHT22;16894;49.456;10.644;2023-02-28T04:16:34;-2.60;99.90
30069;DHT22;16894;49.456;10.644;2023-02-28T04:19:01;-2.60;99.90
30069;DHT22;16894;49.456;10.644;2023-02-28T04:21:28;-2.60;99.90
30069;DHT22;16894;49.456;10.644;2023-02-28T04:23:54;-2.70;99.90
30069;DHT22;16894;49.456;10.644;2023-02-28T04:26:19;-2.60;99.90
30069;DHT22;16894;49.456;10.644;2023-02-28T04:28:45;-2.70;99.90
30069;DHT22;16894;49.456;10.644;2023-02-28T04:31:10;-2.60;99.90
30069;DHT22;16894;49.456;10.644;2023-02-28T04:33:36;-2.50;99.90
30069;DHT22;16894;49.456;10.644;2023-02-28T04:36:03;-2.50;99.90
30069;DHT22;16894;49.456;10.644;2023-02-28T04:38:38;-2.50;99.90
30069;DHT22;16894;49.456;10.644;2023-02-28T04:41:03;-2.60;99.90
30069;DHT22;16894;49.456;10.644;2023-02-28T04:43:29;-2.50;99.90
30069;DHT22;16894;49.456;10.644;2023-02-28T04:45:57;-2.60;99.90
30069;DHT22;16894;49.456;10.644;2023-02-28T04:48:23;-2.60;99.90
30069;DHT22;16894;49.456;10.644;2023-02-28T04:50:50;-2.60;99.90
30069;DHT22;16894;49.456;10.644;2023-02-28T04:53:15;-2.60;99.90
30069;DHT22;16894;49.456;10.644;2023-02-28T04:55:41;-2.60;99.90
30069;DHT22;16894;49.456;10.644;2023-02-28T04:58:06;-2.50;99.90
30069;DHT22;16894;49.456;10.644;2023-02-28T05:00:32;-2.50;99.90
30069;DHT22;16894;49.456;10.644;2023-02-28T05:02:57;-2.50;99.90
30069;DHT22;16894;49.456;10.644;2023-02-28T05:05:23;-2.50;99.90
30069;DHT22;16894;49.456;10.644;2023-02-28T05:07:48;-2.50;99.90
30069;DHT22;16894;49.456;10.644;2023-02-28T05:10:14;-2.60;99.90
30069;DHT22;16894;49.456;10.644;2023-02-28T05:12:40;-2.50;99.90
30069;DHT22;16894;49.456;10.644;2023-02-28T05:15:05;-2.50;99.90
30069;DHT22;16894;49.456;10.644;2023-02-28T05:17:31;-2.50;99.90
30069;DHT22;16894;49.456;10.644;2023-02-28T05:19:57;-2.60;99.90
30069;DHT22;16894;49.456;10.644;2023-02-28T05:22:22;-2.60;99.90
30069;DHT22;16894;49.456;10.644;2023-02-28T05:24:48;-2.60;99.90
30069;DHT22;16894;49.456;10.644;2023-02-28T05:27:13;-2.60;99.90
30069;DHT22;16894;49.456;10.644;2023-02-28T05:29:39;-2.60;99.90
30069;DHT22;16894;49.456;10.644;2023-02-28T05:32:08;-2.60;99.90
30069;DHT22;16894;49.456;10.644;2023-02-28T05:34:35;-2.60;99.90
30069;DHT22;16894;49.456;10.644;2023-02-28T05:37:01;-2.60;99.90
30069;DHT22;16894;49.456;10.644;2023-02-28T05:39:26;-2.60;99.90
30069;DHT22;16894;49.456;10.644;2023-02-28T05:41:52;-2.60;99.90
30069;DHT22;16894;49.456;10.644;2023-02-28T05:44:17;-2.60;99.90
30069;DHT22;16894;49.456;10.644;2023-02-28T05:46:43;-2.50;99.90
30069;DHT22;16894;49.456;10.644;2023-02-28T05:49:08;-2.50;99.90
30069;DHT22;16894;49.456;10.644;2023-02-28T05:51:34;-2.50;99.90
30069;DHT22;16894;49.456;10.644;2023-02-28T05:54:01;-2.50;99.90
30069;DHT22;16894;49.456;10.644;2023-02-28T05:56:27;-2.60;99.90
30069;DHT22;16894;49.456;10.644;2023-02-28T05:58:52;-2.50;99.90
30069;DHT22;16894;49.456;10.644;2023-02-28T06:01:19;-2.60;99.90
30069;DHT22;16894;49.456;10.644;2023-02-28T06:03:45;-2.50;99.90
30069;DHT22;16894;49.456;10.644;2023-02-28T06:06:10;-2.60;99.90
30069;DHT22;16894;49.456;10.644;2023-02-28T06:08:36;-2.60;99.90
30069;DHT22;16894;49.456;10.644;2023-02-28T06:11:04;-2.50;99.90
30069;DHT22;16894;49.456;10.644;2023-02-28T06:13:31;-2.50;99.90
30069;DHT22;16894;49.456;10.644;2023-02-28T06:16:00;-2.50;99.90
30069;DHT22;16894;49.456;10.644;2023-02-28T06:18:25;-2.50;99.90
30069;DHT22;16894;49.456;10.644;2023-02-28T06:20:54;-2.60;99.90
30069;DHT22;16894;49.456;10.644;2023-02-28T06:23:20;-2.60;99.90
30069;DHT22;16894;49.456;10.644;2023-02-28T06:25:46;-2.50;99.90
30069;DHT22;16894;49.456;10.644;2023-02-28T06:28:12;-2.50;99.90
30069;DHT22;16894;49.456;10.644;2023-02-28T06:30:37;-2.40;99.90
30069;DHT22;16894;49.456;10.644;2023-02-28T06:33:03;-2.40;99.90
30069;DHT22;16894;49.456;10.644;2023-02-28T06:35:28;-2.40;99.90
30069;DHT22;16894;49.456;10.644;2023-02-28T06:37:54;-2.50;99.90
30069;DHT22;16894;49.456;10.644;2023-02-28T06:40:20;-2.40;99.90
30069;DHT22;16894;49.456;10.644;2023-02-28T06:42:45;-2.40;99.90
30069;DHT22;16894;49.456;10.644;2023-02-28T06:45:12;-2.30;99.90
30069;DHT22;16894;49.456;10.644;2023-02-28T06:47:38;-2.20;99.90
30069;DHT22;16894;49.456;10.644;2023-02-28T06:50:05;-2.20;99.90
30069;DHT22;16894;49.456;10.644;2023-02-28T06:52:30;-2.10;99.90
30069;DHT22;16894;49.456;10.644;2023-02-28T06:54:56;-2.10;99.90
30069;DHT22;16894;49.456;10.644;2023-02-28T06:57:28;-2.10;99.90
30069;DHT22;16894;49.456;10.644;2023-02-28T06:59:57;-2.00;99.90
30069;DHT22;16894;49.456;10.644;2023-02-28T07:02:23;-2.00;99.90
30069;DHT22;16894;49.456;10.644;2023-02-28T07:04:48;-1.90;99.90
30069;DHT22;16894;49.456;10.644;2023-02-28T07:07:14;-1.80;99.90
30069;DHT22;16894;49.456;10.644;2023-02-28T07:09:39;-1.80;99.90
30069;DHT22;16894;49.456;10.644;2023-02-28T07:12:05;-1.70;99.90
30069;DHT22;16894;49.456;10.644;2023-02-28T07:14:30;-1.70;99.90
30069;DHT22;16894;49.456;10.644;2023-02-28T07:16:56;-1.70;99.90
30069;DHT22;16894;49.456;10.644;2023-02-28T07:19:21;-1.60;99.90
30069;DHT22;16894;49.456;10.644;2023-02-28T07:21:47;-1.50;99.90
30069;DHT22;16894;49.456;10.644;2023-02-28T07:24:12;-1.50;99.90
30069;DHT22;16894;49.456;10.644;2023-02-28T07:26:41;-1.40;99.90
30069;DHT22;16894;49.456;10.644;2023-02-28T07:29:06;-1.40;99.90
30069;DHT22;16894;49.456;10.644;2023-02-28T07:31:32;-1.40;99.90
30069;DHT22;16894;49.456;10.644;2023-02-28T07:33:57;-1.30;99.90
30069;DHT22;16894;49.456;10.644;2023-02-28T07:36:23;-1.30;99.90
30069;DHT22;16894;49.456;10.644;2023-02-28T07:38:49;-1.30;99.90
30069;DHT22;16894;49.456;10.644;2023-02-28T07:41:19;-1.30;99.90
30069;DHT22;16894;49.456;10.644;2023-02-28T07:43:45;-1.30;99.90
30069;DHT22;16894;49.456;10.644;2023-02-28T07:46:12;-1.20;99.90
30069;DHT22;16894;49.456;10.644;2023-02-28T07:48:38;-1.10;99.90
30069;DHT22;16894;49.456;10.644;2023-02-28T07:51:05;-1.10;99.90
30069;DHT22;16894;49.456;10.644;2023-02-28T07:53:31;-1.00;99.90
30069;DHT22;16894;49.456;10.644;2023-02-28T07:55:57;-0.90;99.90
30069;DHT22;16894;49.456;10.644;2023-02-28T07:58:22;-0.80;99.90
30069;DHT22;16894;49.456;10.644;2023-02-28T08:00:48;-0.80;99.90
30069;DHT22;16894;49.456;10.644;2023-02-28T08:03:13;-0.70;99.90
30069;DHT22;16894;49.456;10.644;2023-02-28T08:05:39;-0.70;99.90
30069;DHT22;16894;49.456;10.644;2023-02-28T08:08:05;-0.60;99.90
30069;DHT22;16894;49.456;10.644;2023-02-28T08:10:31;-0.60;99.90
30069;DHT22;16894;49.456;10.644;2023-02-28T08:12:57;-0.60;99.90
30069;DHT22;16894;49.456;10.644;2023-02-28T08:15:22;-0.50;99.90
30069;DHT22;16894;49.456;10.644;2023-02-28T08:17:48;-0.30;99.90
30069;DHT22;16894;49.456;10.644;2023-02-28T08:20:13;-0.30;99.90
30069;DHT22;16894;49.456;10.644;2023-02-28T08:22:39;-0.20;99.90
30069;DHT22;16894;49.456;10.644;2023-02-28T08:25:04;-0.10;99.90
30069;DHT22;16894;49.456;10.644;2023-02-28T08:27:32;0.00;99.90
30069;DHT22;16894;49.456;10.644;2023-02-28T08:29:57;0.10;99.90
30069;DHT22;16894;49.456;10.644;2023-02-28T08:32:23;0.20;99.90
30069;DHT22;16894;49.456;10.644;2023-02-28T08:34:48;0.30;99.90
30069;DHT22;16894;49.456;10.644;2023-02-28T08:37:14;0.50;99.90
30069;DHT22;16894;49.456;10.644;2023-02-28T08:39:39;0.60;99.90
30069;DHT22;16894;49.456;10.644;2023-02-28T08:42:05;0.60;99.90
30069;DHT22;16894;49.456;10.644;2023-02-28T08:44:30;0.70;99.90
30069;DHT22;16894;49.456;10.644;2023-02-28T08:46:56;0.70;99.90
30069;DHT22;16894;49.456;10.644;2023-02-28T08:49:21;0.90;99.90
30069;DHT22;16894;49.456;10.644;2023-02-28T08:51:47;1.10;99.90
30069;DHT22;16894;49.456;10.644;2023-02-28T08:54:12;1.20;99.90
30069;DHT22;16894;49.456;10.644;2023-02-28T08:56:39;1.20;99.90
30069;DHT22;16894;49.456;10.644;2023-02-28T08:59:05;1.20;99.90
30069;DHT22;16894;49.456;10.644;2023-02-28T09:01:31;1.30;99.90
30069;DHT22;16894;49.456;10.644;2023-02-28T09:03:57;1.40;99.90
30069;DHT22;16894;49.456;10.644;2023-02-28T09:06:24;1.30;99.90
30069;DHT22;16894;49.456;10.644;2023-02-28T09:08:51;1.30;99.90
30069;DHT22;16894;49.456;10.644;2023-02-28T09:11:17;1.60;99.90
30069;DHT22;16894;49.456;10.644;2023-02-28T09:13:44;1.60;99.90
30069;DHT22;16894;49.456;10.644;2023-02-28T09:16:11;1.70;99.90
30069;DHT22;16894;49.456;10.644;2023-02-28T09:18:37;1.90;99.90
30069;DHT22;16894;49.456;10.644;2023-02-28T09:21:04;2.10;99.90
30069;DHT22;16894;49.456;10.644;2023-02-28T09:23:30;2.20;99.90
30069;DHT22;16894;49.456;10.644;2023-02-28T09:25:55;2.30;99.90
30069;DHT22;16894;49.456;10.644;2023-02-28T09:28:21;2.30;99.90
30069;DHT22;16894;49.456;10.644;2023-02-28T09:30:48;2.20;99.90
30069;DHT22;16894;49.456;10.644;2023-02-28T09:33:14;2.20;99.90
30069;DHT22;16894;49.456;10.644;2023-02-28T09:35:40;2.20;99.90
30069;DHT22;16894;49.456;10.644;2023-02-28T09:38:06;1.90;99.90
30069;DHT22;16894;49.456;10.644;2023-02-28T09:40:35;1.70;99.90
30069;DHT22;16894;49.456;10.644;2023-02-28T09:43:01;1.50;99.90
30069;DHT22;16894;49.456;10.644;2023-02-28T09:45:29;1.30;99.90
30069;DHT22;16894;49.456;10.644;2023-02-28T09:48:10;1.30;99.90
30069;DHT22;16894;49.456;10.644;2023-02-28T09:50:38;1.50;99.90
30069;DHT22;16894;49.456;10.644;2023-02-28T09:53:16;1.50;99.90
30069;DHT22;16894;49.456;10.644;2023-02-28T09:55:45;1.50;99.90
30069;DHT22;16894;49.456;10.644;2023-02-28T09:58:17;1.90;99.90
30069;DHT22;16894;49.456;10.644;2023-02-28T10:00:44;2.10;99.90
30069;DHT22;16894;49.456;10.644;2023-02-28T10:03:19;2.00;99.90
30069;DHT22;16894;49.456;10.644;2023-02-28T10:05:52;1.90;99.90
30069;DHT22;16894;49.456;10.644;2023-02-28T10:08:21;2.20;99.90
30069;DHT22;16894;49.456;10.644;2023-02-28T10:10:55;2.70;99.80
30069;DHT22;16894;49.456;10.644;2023-02-28T10:16:11;3.30;98.40
30069;DHT22;16894;49.456;10.644;2023-02-28T10:21:20;3.40;97.20
30069;DHT22;16894;49.456;10.644;2023-02-28T10:23:46;3.40;97.40
30069;DHT22;16894;49.456;10.644;2023-02-28T10:26:14;3.70;97.20
30069;DHT22;16894;49.456;10.644;2023-02-28T10:28:43;3.90;96.00
30069;DHT22;16894;49.456;10.644;2023-02-28T10:31:14;4.10;95.80
30069;DHT22;16894;49.456;10.644;2023-02-28T10:33:41;4.20;95.30
30069;DHT22;16894;49.456;10.644;2023-02-28T10:36:08;4.50;95.30
30069;DHT22;16894;49.456;10.644;2023-02-28T10:38:37;4.50;93.90
30069;DHT22;16894;49.456;10.644;2023-02-28T10:41:10;4.40;94.50
30069;DHT22;16894;49.456;10.644;2023-02-28T10:43:36;4.50;94.50
30069;DHT22;16894;49.456;10.644;2023-02-28T10:48:38;4.70;94.20
30069;DHT22;16894;49.456;10.644;2023-02-28T10:51:08;4.80;93.20
30069;DHT22;16894;49.456;10.644;2023-02-28T10:53:37;4.90;93.60
30069;DHT22;16894;49.456;10.644;2023-02-28T11:00:54;5.00;92.00
30069;DHT22;16894;49.456;10.644;2023-02-28T11:03:25;4.60;91.70
30069;DHT22;16894;49.456;10.644;2023-02-28T11:05:50;4.50;92.10
30069;DHT22;16894;49.456;10.644;2023-02-28T11:08:16;4.20;92.30
30069;DHT22;16894;49.456;10.644;2023-02-28T11:10:46;4.10;92.80
30069;DHT22;16894;49.456;10.644;2023-02-28T11:13:19;3.80;93.70
30069;DHT22;16894;49.456;10.644;2023-02-28T11:15:52;3.90;93.70
30069;DHT22;16894;49.456;10.644;2023-02-28T11:18:22;4.20;92.70
30069;DHT22;16894;49.456;10.644;2023-02-28T11:20:50;4.80;92.80
30069;DHT22;16894;49.456;10.644;2023-02-28T11:23:16;5.20;91.40
30069;DHT22;16894;49.456;10.644;2023-02-28T11:25:46;5.40;90.60
30069;DHT22;16894;49.456;10.644;2023-02-28T11:36:14;6.60;88.00
30069;DHT22;16894;49.456;10.644;2023-02-28T11:38:40;6.40;87.60
30069;DHT22;16894;49.456;10.644;2023-02-28T11:46:29;5.50;90.10
30069;DHT22;16894;49.456;10.644;2023-02-28T11:49:15;5.30;90.20
30069;DHT22;16894;49.456;10.644;2023-02-28T11:51:59;5.00;89.60
30069;DHT22;16894;49.456;10.644;2023-02-28T11:56:58;5.10;90.60
30069;DHT22;16894;49.456;10.644;2023-02-28T12:04:48;5.50;90.00
30069;DHT22;16894;49.456;10.644;2023-02-28T12:12:21;5.70;88.10
30069;DHT22;16894;49.456;10.644;2023-02-28T12:17:30;5.70;86.70
30069;DHT22;16894;49.456;10.644;2023-02-28T12:20:42;5.70;88.00
30069;DHT22;16894;49.456;10.644;2023-02-28T12:28:01;5.70;86.80
30069;DHT22;16894;49.456;10.644;2023-02-28T12:30:31;5.80;85.20
30069;DHT22;16894;49.456;10.644;2023-02-28T12:33:07;6.00;84.90
30069;DHT22;16894;49.456;10.644;2023-02-28T12:35:38;6.20;86.20
30069;DHT22;16894;49.456;10.644;2023-02-28T12:38:08;6.30;85.20
30069;DHT22;16894;49.456;10.644;2023-02-28T12:40:43;6.40;83.70
30069;DHT22;16894;49.456;10.644;2023-02-28T12:43:09;6.50;85.40
30069;DHT22;16894;49.456;10.644;2023-02-28T12:45:56;6.60;83.90
30069;DHT22;16894;49.456;10.644;2023-02-28T12:48:33;6.70;82.40
30069;DHT22;16894;49.456;10.644;2023-02-28T12:51:02;6.80;83.10
30069;DHT22;16894;49.456;10.644;2023-02-28T12:54:12;7.30;82.60
30069;DHT22;16894;49.456;10.644;2023-02-28T12:56:53;7.80;81.10
30069;DHT22;16894;49.456;10.644;2023-02-28T12:59:20;8.20;77.50
30069;DHT22;16894;49.456;10.644;2023-02-28T13:02:32;9.30;75.80
30069;DHT22;16894;49.456;10.644;2023-02-28T13:09:39;10.30;70.00
30069;DHT22;16894;49.456;10.644;2023-02-28T13:12:14;10.30;69.10
30069;DHT22;16894;49.456;10.644;2023-02-28T13:14:41;9.90;69.00
30069;DHT22;16894;49.456;10.644;2023-02-28T13:19:46;11.40;66.80
30069;DHT22;16894;49.456;10.644;2023-02-28T13:25:13;11.50;66.80
30069;DHT22;16894;49.456;10.644;2023-02-28T13:27:52;11.40;66.30
30069;DHT22;16894;49.456;10.644;2023-02-28T13:38:36;11.10;62.70
30069;DHT22;16894;49.456;10.644;2023-02-28T13:46:31;11.90;62.00
30069;DHT22;16894;49.456;10.644;2023-02-28T13:49:19;12.10;61.80
30069;DHT22;16894;49.456;10.644;2023-02-28T13:51:44;12.30;61.80
30069;DHT22;16894;49.456;10.644;2023-02-28T13:54:24;12.30;61.50
30069;DHT22;16894;49.456;10.644;2023-02-28T14:07:24;12.30;60.10
30069;DHT22;16894;49.456;10.644;2023-02-28T14:10:15;12.30;60.60
30069;DHT22;16894;49.456;10.644;2023-02-28T14:17:59;12.20;62.20
30069;DHT22;16894;49.456;10.644;2023-02-28T14:20:26;11.40;61.40
30069;DHT22;16894;49.456;10.644;2023-02-28T14:23:04;11.00;62.40
30069;DHT22;16894;49.456;10.644;2023-02-28T14:25:40;11.10;62.30
30069;DHT22;16894;49.456;10.644;2023-02-28T14:30:52;10.40;62.90
30069;DHT22;16894;49.456;10.644;2023-02-28T14:38:35;8.00;68.50
30069;DHT22;16894;49.456;10.644;2023-02-28T14:41:03;7.20;70.10
30069;DHT22;16894;49.456;10.644;2023-02-28T14:43:29;6.80;72.20
30069;DHT22;16894;49.456;10.644;2023-02-28T14:45:56;6.40;73.00
30069;DHT22;16894;49.456;10.644;2023-02-28T14:48:22;6.10;73.20
30069;DHT22;16894;49.456;10.644;2023-02-28T14:50:51;5.90;74.20
30069;DHT22;16894;49.456;10.644;2023-02-28T14:53:17;5.70;74.80
30069;DHT22;16894;49.456;10.644;2023-02-28T14:55:44;5.60;75.60
30069;DHT22;16894;49.456;10.644;2023-02-28T14:58:24;5.50;76.10
30069;DHT22;16894;49.456;10.644;2023-02-28T15:00:51;5.40;76.80
30069;DHT22;16894;49.456;10.644;2023-02-28T15:03:32;5.30;76.60
30069;DHT22;16894;49.456;10.644;2023-02-28T15:05:59;5.20;76.20
30069;DHT22;16894;49.456;10.644;2023-02-28T15:08:25;5.10;78.30
30069;DHT22;16894;49.456;10.644;2023-02-28T15:13:23;5.00;77.50
30069;DHT22;16894;49.456;10.644;2023-02-28T15:20:42;4.90;77.90
30069;DHT22;16894;49.456;10.644;2023-02-28T15:23:09;4.80;78.70
30069;DHT22;16894;49.456;10.644;2023-02-28T15:25:36;4.80;78.60
30069;DHT22;16894;49.456;10.644;2023-02-28T15:28:01;4.80;79.20
30069;DHT22;16894;49.456;10.644;2023-02-28T15:30:28;4.80;79.50
30069;DHT22;16894;49.456;10.644;2023-02-28T15:35:33;4.80;81.10
30069;DHT22;16894;49.456;10.644;2023-02-28T15:45:39;4.60;81.00
30069;DHT22;16894;49.456;10.644;2023-02-28T15:48:23;4.60;81.00
30069;DHT22;16894;49.456;10.644;2023-02-28T15:50:50;4.50;81.60
30069;DHT22;16894;49.456;10.644;2023-02-28T15:53:17;4.50;82.40
30069;DHT22;16894;49.456;10.644;2023-02-28T15:55:43;4.40;82.90
30069;DHT22;16894;49.456;10.644;2023-02-28T15:58:10;4.30;83.10
30069;DHT22;16894;49.456;10.644;2023-02-28T16:00:38;4.30;82.80
30069;DHT22;16894;49.456;10.644;2023-02-28T16:03:26;4.20;83.10
30069;DHT22;16894;49.456;10.644;2023-02-28T16:08:36;4.00;83.00
30069;DHT22;16894;49.456;10.644;2023-02-28T16:11:01;3.90;83.80
30069;DHT22;16894;49.456;10.644;2023-02-28T16:13:27;3.80;84.70
30069;DHT22;16894;49.456;10.644;2023-02-28T16:15:52;3.80;85.80
30069;DHT22;16894;49.456;10.644;2023-02-28T16:18:19;3.70;85.20
30069;DHT22;16894;49.456;10.644;2023-02-28T16:20:45;3.60;86.00
30069;DHT22;16894;49.456;10.644;2023-02-28T16:23:10;3.60;86.20
30069;DHT22;16894;49.456;10.644;2023-02-28T16:25:37;3.50;86.30
30069;DHT22;16894;49.456;10.644;2023-02-28T16:28:02;3.50;87.80
30069;DHT22;16894;49.456;10.644;2023-02-28T16:30:28;3.40;87.80
30069;DHT22;16894;49.456;10.644;2023-02-28T16:32:56;3.30;88.40
30069;DHT22;16894;49.456;10.644;2023-02-28T16:35:22;3.30;87.80
30069;DHT22;16894;49.456;10.644;2023-02-28T16:37:48;3.20;88.30
30069;DHT22;16894;49.456;10.644;2023-02-28T16:40:16;3.10;88.70
30069;DHT22;16894;49.456;10.644;2023-02-28T16:42:42;3.10;88.70
30069;DHT22;16894;49.456;10.644;2023-02-28T16:45:18;3.00;90.30
30069;DHT22;16894;49.456;10.644;2023-02-28T16:47:45;3.00;90.10
30069;DHT22;16894;49.456;10.644;2023-02-28T16:50:18;2.90;89.50
30069;DHT22;16894;49.456;10.644;2023-02-28T16:52:44;2.80;90.30
30069;DHT22;16894;49.456;10.644;2023-02-28T16:55:10;2.70;90.50
30069;DHT22;16894;49.456;10.644;2023-02-28T16:57:35;2.60;90.50
30069;DHT22;16894;49.456;10.644;2023-02-28T17:00:01;2.50;90.90
30069;DHT22;16894;49.456;10.644;2023-02-28T17:02:26;2.40;91.10
30069;DHT22;16894;49.456;10.644;2023-02-28T17:04:52;2.30;92.40
30069;DHT22;16894;49.456;10.644;2023-02-28T17:07:17;2.20;92.90
30069;DHT22;16894;49.456;10.644;2023-02-28T17:09:43;2.10;92.50
30069;DHT22;16894;49.456;10.644;2023-02-28T17:12:09;2.10;93.50
30069;DHT22;16894;49.456;10.644;2023-02-28T17:14:36;2.10;93.30
30069;DHT22;16894;49.456;10.644;2023-02-28T17:17:03;2.00;93.80
30069;DHT22;16894;49.456;10.644;2023-02-28T17:19:29;1.90;94.50
30069;DHT22;16894;49.456;10.644;2023-02-28T17:21:54;1.70;95.60
30069;DHT22;16894;49.456;10.644;2023-02-28T17:24:20;1.60;96.60
30069;DHT22;16894;49.456;10.644;2023-02-28T17:26:45;1.60;97.30
30069;DHT22;16894;49.456;10.644;2023-02-28T17:29:18;1.50;98.00
30069;DHT22;16894;49.456;10.644;2023-02-28T17:31:44;1.40;98.50
30069;DHT22;16894;49.456;10.644;2023-02-28T17:34:10;1.40;99.30
30069;DHT22;16894;49.456;10.644;2023-02-28T17:36:36;1.30;99.90
30069;DHT22;16894;49.456;10.644;2023-02-28T17:39:02;1.40;99.90
30069;DHT22;16894;49.456;10.644;2023-02-28T17:41:28;1.30;99.90
30069;DHT22;16894;49.456;10.644;2023-02-28T17:43:55;1.30;99.90
30069;DHT22;16894;49.456;10.644;2023-02-28T17:46:22;1.20;99.90
30069;DHT22;16894;49.456;10.644;2023-02-28T17:48:48;1.20;99.90